Dewitt Spain (M01)
Memphis, TN
Field Elevation: 224
Lat: 35°12.04N  Long: 90°03.24W
CTAF/Unicom Freq: 122.7000
   
     For Weather-by-Phone, call 901-354-9296
Weather Advisories
4/23/2014 19:00 Z
Altimeter 30.00" Hg
Wind 090° @ 0 KT
Gusts --
Visibility 10 SM
Ceiling FEW240
Temperature 23° C (73° F)
Dewpoint 7° C (45° F)
Relative Humidity 36%
Density Altitude --
Condensation Altitude 8,000 feet
  Wind and Runways
Indicated Runway = 17
History
 
 
More Info
All DigiWx sites map
NOAA Forecast
 
Airport IQ 5010
(2M8) Charles W. Baker Airport
(3M3) Collegedale Muni
 
about DigiWx
 
FAA Disclaimer: The data displayed is for advisory purposes only and is not to be used for flight planning or operations. For official data, please call 901-354-9296 to hear the current automated AWOS voice message.
  METAR M01 231900Z AUTO 09000KT 10SM FEW240 23/07 A3000